Forside
METAR-TAF:

METAR-TAF

Lufthavne :

Vientiane, Laos

Breddekreds: 17-57N, længdekreds: 102-34E, højde: 171 m

Aktuelle vejr

Denne rapport blev lavet for 19 minutter siden, kl. 01:00 UTC
Vind stille
Temperatur 24°C
Fugtighed 89%
Tryk 1015 hPa
Sigt: 5000 m
Spredte skyer i en højde af 2000 ft
dis

METAR: VLVT 210100Z 00000KT 5000 BR SCT020 24/22 Q1015 NOSIG

Tid: 08:19 (01:19 UTC)

Vejrudsigter

Denne rapport blev lavet for 2 timer og 19 minutter siden, kl. 23:00 UTC
Foreløbig gælder fra 21 på 00 UTC til 21 på 24 UTC
Vind 4 kt fra nordvest
Sigt: 8000 m
Nogle få skyer i en højde af 2000 ft
Spredte skyer i en højde af 5000 ft
Midlertidig
fra 21 på 14 UTC til 21 på 20 UTC
Sigt: 4000 m
Spredte skyer i en højde af 5000 ft
dis

TAF: VLVT 202300Z 2100/2124 32004KT 8000 FEW020 SCT050 TEMPO 2114/2120 4000 BR SCT050

Vejrobservationer og prognoser fra mere end 4000 lufthavne (METAR og TAF).

De gule og røde prikker repræsenterer de meteorologiske stationer.

Flyt musen over at se navnet på stationen.

Så klik over at se vejr observationer og prognoser.

At skifte det kort: Klik på de grønne knapper med et sort kors for at zoome ind; på den grønne knap med en bindestreg for at zoome ud; eller på de grønne pile for tilstødende kort.


METAR-TAF: